sensor_id;sensor_type;location;lat;lon;timestamp;pressure;altitude;pressure_sealevel;temperature;humidity
54042;BME280;41156;51.508;5.406;2023-04-27T00:00:57;101955.09;;;4.43;87.83
54042;BME280;41156;51.508;5.406;2023-04-27T00:03:57;101953.56;;;4.40;87.27
54042;BME280;41156;51.508;5.406;2023-04-27T00:06:57;101958.38;;;4.37;87.63
54042;BME280;41156;51.508;5.406;2023-04-27T00:09:58;101958.78;;;4.32;88.14
54042;BME280;41156;51.508;5.406;2023-04-27T00:12:58;101953.72;;;4.29;88.03
54042;BME280;41156;51.508;5.406;2023-04-27T00:15:59;101947.00;;;4.25;88.17
54042;BME280;41156;51.508;5.406;2023-04-27T00:19:02;101956.28;;;4.21;88.60
54042;BME280;41156;51.508;5.406;2023-04-27T00:22:03;101953.22;;;4.16;88.58
54042;BME280;41156;51.508;5.406;2023-04-27T00:25:04;101957.72;;;4.15;89.01
54042;BME280;41156;51.508;5.406;2023-04-27T00:28:05;101961.13;;;4.07;90.28
54042;BME280;41156;51.508;5.406;2023-04-27T00:31:05;101959.88;;;4.02;89.29
54042;BME280;41156;51.508;5.406;2023-04-27T00:34:06;101959.75;;;3.94;91.37
54042;BME280;41156;51.508;5.406;2023-04-27T00:37:06;101964.00;;;3.86;91.14
54042;BME280;41156;51.508;5.406;2023-04-27T00:40:07;101954.69;;;3.81;91.24
54042;BME280;41156;51.508;5.406;2023-04-27T00:43:07;101955.84;;;3.78;91.13
54042;BME280;41156;51.508;5.406;2023-04-27T00:46:08;101955.25;;;3.75;91.53
54042;BME280;41156;51.508;5.406;2023-04-27T00:49:08;101954.69;;;3.71;90.69
54042;BME280;41156;51.508;5.406;2023-04-27T00:52:09;101951.47;;;3.67;90.97
54042;BME280;41156;51.508;5.406;2023-04-27T00:55:09;101954.16;;;3.67;91.59
54042;BME280;41156;51.508;5.406;2023-04-27T00:58:10;101957.25;;;3.63;92.48
54042;BME280;41156;51.508;5.406;2023-04-27T01:01:10;101956.53;;;3.61;91.81
54042;BME280;41156;51.508;5.406;2023-04-27T01:04:11;101952.63;;;3.55;92.44
54042;BME280;41156;51.508;5.406;2023-04-27T01:07:12;101953.88;;;3.51;92.58
54042;BME280;41156;51.508;5.406;2023-04-27T01:10:12;101947.97;;;3.47;92.91
54042;BME280;41156;51.508;5.406;2023-04-27T01:13:12;101949.13;;;3.45;93.76
54042;BME280;41156;51.508;5.406;2023-04-27T01:16:13;101946.00;;;3.40;93.42
54042;BME280;41156;51.508;5.406;2023-04-27T01:19:13;101952.63;;;3.36;93.44
54042;BME280;41156;51.508;5.406;2023-04-27T01:22:13;101959.06;;;3.33;94.30
54042;BME280;41156;51.508;5.406;2023-04-27T01:25:14;101959.25;;;3.31;93.41
54042;BME280;41156;51.508;5.406;2023-04-27T01:28:14;101966.38;;;3.31;93.17
54042;BME280;41156;51.508;5.406;2023-04-27T01:31:14;101965.81;;;3.27;93.23
54042;BME280;41156;51.508;5.406;2023-04-27T01:34:15;101955.56;;;3.23;94.46
54042;BME280;41156;51.508;5.406;2023-04-27T01:37:15;101958.34;;;3.21;93.24
54042;BME280;41156;51.508;5.406;2023-04-27T01:40:16;101950.47;;;3.20;92.97
54042;BME280;41156;51.508;5.406;2023-04-27T01:43:16;101949.78;;;3.18;94.10
54042;BME280;41156;51.508;5.406;2023-04-27T01:46:16;101947.38;;;3.14;94.97
54042;BME280;41156;51.508;5.406;2023-04-27T01:49:17;101943.72;;;3.06;94.67
54042;BME280;41156;51.508;5.406;2023-04-27T01:52:17;101945.97;;;3.01;95.51
54042;BME280;41156;51.508;5.406;2023-04-27T01:55:17;101947.06;;;2.98;95.42
54042;BME280;41156;51.508;5.406;2023-04-27T01:58:17;101933.16;;;2.94;95.56
54042;BME280;41156;51.508;5.406;2023-04-27T02:01:18;101945.28;;;2.99;95.19
54042;BME280;41156;51.508;5.406;2023-04-27T02:04:18;101941.44;;;2.91;95.27
54042;BME280;41156;51.508;5.406;2023-04-27T02:07:18;101939.06;;;2.88;96.24
54042;BME280;41156;51.508;5.406;2023-04-27T02:10:19;101934.97;;;2.84;97.48
54042;BME280;41156;51.508;5.406;2023-04-27T02:13:21;101935.25;;;2.81;97.01
54042;BME280;41156;51.508;5.406;2023-04-27T02:16:21;101935.50;;;2.78;97.08
54042;BME280;41156;51.508;5.406;2023-04-27T02:19:21;101928.78;;;2.74;96.79
54042;BME280;41156;51.508;5.406;2023-04-27T02:22:22;101931.59;;;2.72;96.27
54042;BME280;41156;51.508;5.406;2023-04-27T02:25:22;101933.81;;;2.67;96.97
54042;BME280;41156;51.508;5.406;2023-04-27T02:28:22;101923.53;;;2.63;96.21
54042;BME280;41156;51.508;5.406;2023-04-27T02:31:23;101908.81;;;2.58;96.85
54042;BME280;41156;51.508;5.406;2023-04-27T02:34:23;101926.75;;;2.56;97.32
54042;BME280;41156;51.508;5.406;2023-04-27T02:37:23;101919.88;;;2.54;97.39
54042;BME280;41156;51.508;5.406;2023-04-27T02:40:24;101916.63;;;2.50;97.58
54042;BME280;41156;51.508;5.406;2023-04-27T02:43:24;101913.53;;;2.45;97.86
54042;BME280;41156;51.508;5.406;2023-04-27T02:46:25;101913.66;;;2.44;98.39
54042;BME280;41156;51.508;5.406;2023-04-27T02:49:26;101920.09;;;2.41;98.18
54042;BME280;41156;51.508;5.406;2023-04-27T02:52:27;101918.56;;;2.38;97.92
54042;BME280;41156;51.508;5.406;2023-04-27T02:55:27;101921.63;;;2.34;97.90
54042;BME280;41156;51.508;5.406;2023-04-27T02:58:28;101924.28;;;2.34;97.81
54042;BME280;41156;51.508;5.406;2023-04-27T03:01:29;101923.59;;;2.32;98.78
54042;BME280;41156;51.508;5.406;2023-04-27T03:04:29;101920.19;;;2.30;99.08
54042;BME280;41156;51.508;5.406;2023-04-27T03:07:29;101908.81;;;2.28;100.00
54042;BME280;41156;51.508;5.406;2023-04-27T03:10:30;101917.09;;;2.25;98.22
54042;BME280;41156;51.508;5.406;2023-04-27T03:13:30;101909.22;;;2.23;99.10
54042;BME280;41156;51.508;5.406;2023-04-27T03:16:37;101920.03;;;2.21;99.45
54042;BME280;41156;51.508;5.406;2023-04-27T03:19:37;101922.72;;;2.21;99.78
54042;BME280;41156;51.508;5.406;2023-04-27T03:22:38;101919.31;;;2.19;99.67
54042;BME280;41156;51.508;5.406;2023-04-27T03:25:38;101920.19;;;2.20;100.00
54042;BME280;41156;51.508;5.406;2023-04-27T03:28:39;101922.84;;;2.20;100.00
54042;BME280;41156;51.508;5.406;2023-04-27T03:31:40;101927.31;;;2.19;99.82
54042;BME280;41156;51.508;5.406;2023-04-27T03:34:41;101925.50;;;2.20;100.00
54042;BME280;41156;51.508;5.406;2023-04-27T03:37:41;101935.31;;;2.19;100.00
54042;BME280;41156;51.508;5.406;2023-04-27T03:40:43;101937.97;;;2.19;100.00
54042;BME280;41156;51.508;5.406;2023-04-27T03:43:43;101936.06;;;2.21;100.00
54042;BME280;41156;51.508;5.406;2023-04-27T03:46:44;101939.53;;;2.22;100.00
54042;BME280;41156;51.508;5.406;2023-04-27T03:49:44;101934.34;;;2.20;100.00
54042;BME280;41156;51.508;5.406;2023-04-27T03:52:45;101932.78;;;2.18;100.00
54042;BME280;41156;51.508;5.406;2023-04-27T03:55:46;101929.66;;;2.13;100.00
54042;BME280;41156;51.508;5.406;2023-04-27T03:58:46;101935.25;;;2.10;100.00
54042;BME280;41156;51.508;5.406;2023-04-27T04:01:47;101947.06;;;2.07;100.00
54042;BME280;41156;51.508;5.406;2023-04-27T04:04:47;101949.00;;;2.05;100.00
54042;BME280;41156;51.508;5.406;2023-04-27T04:07:47;101945.59;;;2.03;100.00
54042;BME280;41156;51.508;5.406;2023-04-27T04:10:48;101937.75;;;2.01;100.00
54042;BME280;41156;51.508;5.406;2023-04-27T04:13:48;101939.69;;;1.99;100.00
54042;BME280;41156;51.508;5.406;2023-04-27T04:16:48;101945.03;;;1.99;100.00
54042;BME280;41156;51.508;5.406;2023-04-27T04:19:49;101943.38;;;1.98;100.00
54042;BME280;41156;51.508;5.406;2023-04-27T04:22:49;101956.81;;;1.97;100.00
54042;BME280;41156;51.508;5.406;2023-04-27T04:25:50;101949.06;;;1.94;100.00
54042;BME280;41156;51.508;5.406;2023-04-27T04:28:50;101952.72;;;1.93;100.00
54042;BME280;41156;51.508;5.406;2023-04-27T04:31:51;101952.72;;;1.93;100.00
54042;BME280;41156;51.508;5.406;2023-04-27T04:34:51;101947.38;;;1.93;100.00
54042;BME280;41156;51.508;5.406;2023-04-27T04:37:52;101953.69;;;1.92;100.00
54042;BME280;41156;51.508;5.406;2023-04-27T04:40:52;101966.75;;;1.95;100.00
54042;BME280;41156;51.508;5.406;2023-04-27T04:43:52;101964.56;;;2.00;100.00
54042;BME280;41156;51.508;5.406;2023-04-27T04:46:53;101976.75;;;2.02;100.00
54042;BME280;41156;51.508;5.406;2023-04-27T04:49:54;101971.19;;;2.06;100.00
54042;BME280;41156;51.508;5.406;2023-04-27T04:52:54;101976.25;;;2.09;100.00
54042;BME280;41156;51.508;5.406;2023-04-27T04:55:55;101970.66;;;2.12;100.00
54042;BME280;41156;51.508;5.406;2023-04-27T04:58:55;101973.91;;;2.15;100.00
54042;BME280;41156;51.508;5.406;2023-04-27T05:01:56;101977.97;;;2.19;100.00
54042;BME280;41156;51.508;5.406;2023-04-27T05:04:56;101976.50;;;2.27;100.00
54042;BME280;41156;51.508;5.406;2023-04-27T05:07:57;101978.59;;;2.33;100.00
54042;BME280;41156;51.508;5.406;2023-04-27T05:10:57;101979.06;;;2.38;100.00
54042;BME280;41156;51.508;5.406;2023-04-27T05:13:57;101969.69;;;2.44;100.00
54042;BME280;41156;51.508;5.406;2023-04-27T05:16:58;101979.69;;;2.51;100.00
54042;BME280;41156;51.508;5.406;2023-04-27T05:19:58;101971.16;;;2.57;100.00
54042;BME280;41156;51.508;5.406;2023-04-27T05:22:58;101976.66;;;2.66;100.00
54042;BME280;41156;51.508;5.406;2023-04-27T05:25:58;101977.94;;;2.71;100.00
54042;BME280;41156;51.508;5.406;2023-04-27T05:28:59;101978.22;;;2.78;100.00
54042;BME280;41156;51.508;5.406;2023-04-27T05:31:59;101982.75;;;2.87;100.00
54042;BME280;41156;51.508;5.406;2023-04-27T05:35:00;101983.75;;;2.96;100.00
54042;BME280;41156;51.508;5.406;2023-04-27T05:38:00;101983.09;;;3.04;100.00
54042;BME280;41156;51.508;5.406;2023-04-27T05:41:00;101982.25;;;3.13;100.00
54042;BME280;41156;51.508;5.406;2023-04-27T05:44:01;101990.41;;;3.21;100.00
54042;BME280;41156;51.508;5.406;2023-04-27T05:47:01;101986.78;;;3.32;100.00
54042;BME280;41156;51.508;5.406;2023-04-27T05:50:01;101990.16;;;3.44;100.00
54042;BME280;41156;51.508;5.406;2023-04-27T05:53:02;102001.16;;;3.60;100.00
54042;BME280;41156;51.508;5.406;2023-04-27T05:56:04;102000.56;;;3.76;100.00
54042;BME280;41156;51.508;5.406;2023-04-27T05:59:08;101994.66;;;3.92;100.00
54042;BME280;41156;51.508;5.406;2023-04-27T06:02:08;101988.88;;;4.06;100.00
54042;BME280;41156;51.508;5.406;2023-04-27T06:05:09;101996.97;;;4.24;100.00
54042;BME280;41156;51.508;5.406;2023-04-27T06:08:10;102000.38;;;4.64;100.00
54042;BME280;41156;51.508;5.406;2023-04-27T06:11:11;101991.56;;;5.27;100.00
54042;BME280;41156;51.508;5.406;2023-04-27T06:14:11;101991.59;;;5.89;98.34
54042;BME280;41156;51.508;5.406;2023-04-27T06:17:12;101989.88;;;6.51;95.01
54042;BME280;41156;51.508;5.406;2023-04-27T06:20:12;101989.22;;;6.99;90.20
54042;BME280;41156;51.508;5.406;2023-04-27T06:23:13;101980.94;;;7.44;83.50
54042;BME280;41156;51.508;5.406;2023-04-27T06:26:13;101984.66;;;7.92;84.58
54042;BME280;41156;51.508;5.406;2023-04-27T06:29:13;101983.56;;;8.50;87.15
54042;BME280;41156;51.508;5.406;2023-04-27T06:32:14;101973.28;;;8.94;80.44
54042;BME280;41156;51.508;5.406;2023-04-27T06:35:16;101981.25;;;9.65;74.94
54042;BME280;41156;51.508;5.406;2023-04-27T06:38:16;101981.75;;;10.21;80.74
54042;BME280;41156;51.508;5.406;2023-04-27T06:41:17;101986.25;;;10.44;74.62
54042;BME280;41156;51.508;5.406;2023-04-27T06:44:17;101985.09;;;10.23;71.47
54042;BME280;41156;51.508;5.406;2023-04-27T06:47:18;101986.63;;;10.41;76.93
54042;BME280;41156;51.508;5.406;2023-04-27T06:50:18;101997.59;;;10.99;71.10
54042;BME280;41156;51.508;5.406;2023-04-27T06:53:18;101986.00;;;11.63;73.48
54042;BME280;41156;51.508;5.406;2023-04-27T06:56:18;101990.22;;;12.15;70.93
54042;BME280;41156;51.508;5.406;2023-04-27T06:59:19;101992.25;;;12.76;63.45
54042;BME280;41156;51.508;5.406;2023-04-27T07:02:20;101983.44;;;13.09;67.94
54042;BME280;41156;51.508;5.406;2023-04-27T07:05:20;101979.50;;;13.25;67.77
54042;BME280;41156;51.508;5.406;2023-04-27T07:08:21;101972.28;;;13.59;59.09
54042;BME280;41156;51.508;5.406;2023-04-27T07:11:21;101982.25;;;13.39;58.21
54042;BME280;41156;51.508;5.406;2023-04-27T07:14:21;101966.97;;;13.18;64.33
54042;BME280;41156;51.508;5.406;2023-04-27T07:17:22;101976.50;;;13.07;62.87
54042;BME280;41156;51.508;5.406;2023-04-27T07:20:22;101972.06;;;13.41;65.88
54042;BME280;41156;51.508;5.406;2023-04-27T07:23:23;101968.97;;;13.71;63.83
54042;BME280;41156;51.508;5.406;2023-04-27T07:26:23;101977.50;;;13.61;60.01
54042;BME280;41156;51.508;5.406;2023-04-27T07:29:23;101975.38;;;13.36;61.48
54042;BME280;41156;51.508;5.406;2023-04-27T07:32:27;101972.50;;;13.51;60.17
54042;BME280;41156;51.508;5.406;2023-04-27T07:35:30;101980.25;;;13.67;55.46
54042;BME280;41156;51.508;5.406;2023-04-27T07:38:31;101978.56;;;13.80;58.59
54042;BME280;41156;51.508;5.406;2023-04-27T07:41:31;101980.66;;;14.11;60.46
54042;BME280;41156;51.508;5.406;2023-04-27T07:44:33;101974.50;;;14.56;54.58
54042;BME280;41156;51.508;5.406;2023-04-27T07:47:34;101968.88;;;14.44;54.11
54042;BME280;41156;51.508;5.406;2023-04-27T07:50:34;101969.97;;;14.16;58.01
54042;BME280;41156;51.508;5.406;2023-04-27T07:53:36;101975.84;;;13.93;52.69
54042;BME280;41156;51.508;5.406;2023-04-27T07:56:39;101972.91;;;13.61;57.09
54042;BME280;41156;51.508;5.406;2023-04-27T07:59:39;101977.28;;;13.49;57.64
54042;BME280;41156;51.508;5.406;2023-04-27T08:02:39;101978.94;;;13.43;55.42
54042;BME280;41156;51.508;5.406;2023-04-27T08:05:40;101969.78;;;13.64;55.09
54042;BME280;41156;51.508;5.406;2023-04-27T08:08:40;101976.25;;;13.90;55.01
54042;BME280;41156;51.508;5.406;2023-04-27T08:11:41;101972.72;;;14.03;56.04
54042;BME280;41156;51.508;5.406;2023-04-27T08:14:41;101978.28;;;14.41;50.70
54042;BME280;41156;51.508;5.406;2023-04-27T08:17:41;101979.94;;;14.56;51.44
54042;BME280;41156;51.508;5.406;2023-04-27T08:20:42;101983.31;;;14.44;54.34
54042;BME280;41156;51.508;5.406;2023-04-27T08:23:43;101982.88;;;14.61;50.32
54042;BME280;41156;51.508;5.406;2023-04-27T08:26:43;101976.59;;;14.40;49.04
54042;BME280;41156;51.508;5.406;2023-04-27T08:29:47;101972.25;;;14.33;50.80
54042;BME280;41156;51.508;5.406;2023-04-27T08:32:47;101964.13;;;14.06;52.67
54042;BME280;41156;51.508;5.406;2023-04-27T08:35:47;101946.56;;;14.09;50.22
54042;BME280;41156;51.508;5.406;2023-04-27T08:38:48;101955.34;;;14.11;50.13
54042;BME280;41156;51.508;5.406;2023-04-27T08:41:48;101941.94;;;14.29;47.85
54042;BME280;41156;51.508;5.406;2023-04-27T08:44:48;101945.13;;;14.06;49.19
54042;BME280;41156;51.508;5.406;2023-04-27T08:47:49;101948.44;;;14.01;51.42
54042;BME280;41156;51.508;5.406;2023-04-27T08:50:49;101948.88;;;13.92;49.50
54042;BME280;41156;51.508;5.406;2023-04-27T08:53:53;101945.94;;;13.93;49.10
54042;BME280;41156;51.508;5.406;2023-04-27T08:56:53;101950.97;;;14.10;50.72
54042;BME280;41156;51.508;5.406;2023-04-27T08:59:57;101954.50;;;14.03;46.50
54042;BME280;41156;51.508;5.406;2023-04-27T09:03:06;101947.22;;;13.84;48.26
54042;BME280;41156;51.508;5.406;2023-04-27T09:06:07;101945.75;;;13.88;48.43
54042;BME280;41156;51.508;5.406;2023-04-27T09:09:07;101953.50;;;13.84;48.87
54042;BME280;41156;51.508;5.406;2023-04-27T09:12:20;101944.50;;;13.97;45.67
54042;BME280;41156;51.508;5.406;2023-04-27T09:15:20;101941.31;;;14.14;44.99
54042;BME280;41156;51.508;5.406;2023-04-27T09:18:22;101947.81;;;14.19;47.01
54042;BME280;41156;51.508;5.406;2023-04-27T09:21:29;101952.78;;;14.42;46.20
54042;BME280;41156;51.508;5.406;2023-04-27T09:24:30;101947.38;;;14.29;46.14
54042;BME280;41156;51.508;5.406;2023-04-27T09:27:30;101941.13;;;14.09;46.89
54042;BME280;41156;51.508;5.406;2023-04-27T09:30:30;101944.88;;;14.21;48.17
54042;BME280;41156;51.508;5.406;2023-04-27T09:33:32;101931.47;;;14.33;44.36
54042;BME280;41156;51.508;5.406;2023-04-27T09:36:33;101937.69;;;14.60;44.39
54042;BME280;41156;51.508;5.406;2023-04-27T09:39:35;101932.72;;;14.89;45.79
54042;BME280;41156;51.508;5.406;2023-04-27T09:42:35;101923.41;;;15.10;44.30
54042;BME280;41156;51.508;5.406;2023-04-27T09:45:36;101929.41;;;15.18;44.05
54042;BME280;41156;51.508;5.406;2023-04-27T09:48:37;101937.06;;;15.03;43.35
54042;BME280;41156;51.508;5.406;2023-04-27T09:51:38;101929.19;;;15.20;45.38
54042;BME280;41156;51.508;5.406;2023-04-27T09:54:38;101925.09;;;15.68;45.44
54042;BME280;41156;51.508;5.406;2023-04-27T09:57:49;101919.38;;;16.01;41.57
54042;BME280;41156;51.508;5.406;2023-04-27T10:07:54;101909.91;;;15.53;43.34
54042;BME280;41156;51.508;5.406;2023-04-27T10:10:54;101915.06;;;15.62;40.52
54042;BME280;41156;51.508;5.406;2023-04-27T10:13:54;101913.00;;;15.32;41.92
54042;BME280;41156;51.508;5.406;2023-04-27T10:16:56;101918.44;;;15.32;42.69
54042;BME280;41156;51.508;5.406;2023-04-27T10:20:02;101911.78;;;15.28;40.61
54042;BME280;41156;51.508;5.406;2023-04-27T10:23:03;101922.09;;;15.51;42.47
54042;BME280;41156;51.508;5.406;2023-04-27T10:26:06;101919.25;;;15.39;42.51
54042;BME280;41156;51.508;5.406;2023-04-27T10:29:07;101922.19;;;15.38;42.77
54042;BME280;41156;51.508;5.406;2023-04-27T10:32:12;101921.59;;;15.61;41.49
54042;BME280;41156;51.508;5.406;2023-04-27T10:35:18;101910.19;;;15.70;42.09
54042;BME280;41156;51.508;5.406;2023-04-27T10:38:21;101918.44;;;15.64;40.06
54042;BME280;41156;51.508;5.406;2023-04-27T10:41:33;101914.97;;;15.75;39.13
54042;BME280;41156;51.508;5.406;2023-04-27T10:44:35;101913.16;;;15.94;40.72
54042;BME280;41156;51.508;5.406;2023-04-27T10:47:40;101916.19;;;16.04;38.65
54042;BME280;41156;51.508;5.406;2023-04-27T10:50:41;101906.56;;;16.02;40.55
54042;BME280;41156;51.508;5.406;2023-04-27T10:53:43;101896.22;;;16.11;40.41
54042;BME280;41156;51.508;5.406;2023-04-27T10:56:44;101897.47;;;16.08;40.20
54042;BME280;41156;51.508;5.406;2023-04-27T11:02:48;101888.03;;;15.92;38.91
54042;BME280;41156;51.508;5.406;2023-04-27T11:05:59;101885.22;;;15.99;39.74
54042;BME280;41156;51.508;5.406;2023-04-27T11:09:00;101881.72;;;16.28;39.15
54042;BME280;41156;51.508;5.406;2023-04-27T11:12:00;101873.09;;;16.32;39.53
54042;BME280;41156;51.508;5.406;2023-04-27T11:15:02;101879.47;;;16.25;37.91
54042;BME280;41156;51.508;5.406;2023-04-27T11:18:06;101870.50;;;16.37;38.20
54042;BME280;41156;51.508;5.406;2023-04-27T11:24:09;101876.72;;;16.44;37.70
54042;BME280;41156;51.508;5.406;2023-04-27T11:27:10;101865.50;;;16.52;39.70
54042;BME280;41156;51.508;5.406;2023-04-27T11:30:21;101866.50;;;16.39;37.00
54042;BME280;41156;51.508;5.406;2023-04-27T11:33:21;101857.94;;;16.36;38.55
54042;BME280;41156;51.508;5.406;2023-04-27T11:36:22;101858.19;;;16.34;35.64
54042;BME280;41156;51.508;5.406;2023-04-27T11:39:22;101860.66;;;16.54;38.27
54042;BME280;41156;51.508;5.406;2023-04-27T11:42:24;101863.34;;;16.73;37.47
54042;BME280;41156;51.508;5.406;2023-04-27T11:45:25;101840.31;;;16.99;37.96
54042;BME280;41156;51.508;5.406;2023-04-27T11:48:29;101854.75;;;16.88;37.71
54042;BME280;41156;51.508;5.406;2023-04-27T11:51:32;101836.78;;;17.10;37.34
54042;BME280;41156;51.508;5.406;2023-04-27T11:54:33;101848.56;;;17.34;37.88
54042;BME280;41156;51.508;5.406;2023-04-27T11:57:34;101847.06;;;17.50;36.77
54042;BME280;41156;51.508;5.406;2023-04-27T12:00:38;101842.88;;;17.36;37.45
54042;BME280;41156;51.508;5.406;2023-04-27T12:03:38;101844.66;;;17.66;37.42
54042;BME280;41156;51.508;5.406;2023-04-27T12:06:39;101845.47;;;17.78;36.72
54042;BME280;41156;51.508;5.406;2023-04-27T12:09:40;101839.78;;;17.68;36.54
54042;BME280;41156;51.508;5.406;2023-04-27T12:12:41;101841.94;;;17.78;35.65
54042;BME280;41156;51.508;5.406;2023-04-27T12:15:42;101847.03;;;17.74;34.85
54042;BME280;41156;51.508;5.406;2023-04-27T12:18:42;101833.13;;;17.75;35.98
54042;BME280;41156;51.508;5.406;2023-04-27T12:21:43;101829.19;;;17.83;35.54
54042;BME280;41156;51.508;5.406;2023-04-27T12:24:43;101834.06;;;17.81;34.36
54042;BME280;41156;51.508;5.406;2023-04-27T12:27:43;101819.38;;;17.70;36.22
54042;BME280;41156;51.508;5.406;2023-04-27T12:30:46;101824.34;;;17.97;36.31
54042;BME280;41156;51.508;5.406;2023-04-27T12:33:46;101819.09;;;18.07;33.52
54042;BME280;41156;51.508;5.406;2023-04-27T12:36:48;101815.13;;;18.15;35.17
54042;BME280;41156;51.508;5.406;2023-04-27T12:39:48;101805.59;;;18.29;35.33
54042;BME280;41156;51.508;5.406;2023-04-27T12:42:48;101809.41;;;18.57;35.04
54042;BME280;41156;51.508;5.406;2023-04-27T12:45:49;101815.66;;;18.41;33.60
54042;BME280;41156;51.508;5.406;2023-04-27T12:48:49;101800.06;;;18.41;35.23
54042;BME280;41156;51.508;5.406;2023-04-27T12:51:51;101806.81;;;18.51;35.96
54042;BME280;41156;51.508;5.406;2023-04-27T12:54:52;101805.34;;;18.60;33.51
54042;BME280;41156;51.508;5.406;2023-04-27T12:57:56;101805.16;;;18.21;35.17
54042;BME280;41156;51.508;5.406;2023-04-27T13:00:57;101809.94;;;18.14;35.67
54042;BME280;41156;51.508;5.406;2023-04-27T13:03:59;101801.94;;;18.24;31.03
54042;BME280;41156;51.508;5.406;2023-04-27T13:07:02;101790.50;;;18.27;33.49
54042;BME280;41156;51.508;5.406;2023-04-27T13:10:03;101788.81;;;18.26;33.07
54042;BME280;41156;51.508;5.406;2023-04-27T13:13:03;101784.75;;;18.28;34.22
54042;BME280;41156;51.508;5.406;2023-04-27T13:16:04;101782.81;;;18.12;32.44
54042;BME280;41156;51.508;5.406;2023-04-27T13:19:04;101789.03;;;18.36;33.59
54042;BME280;41156;51.508;5.406;2023-04-27T13:22:04;101780.44;;;18.61;34.37
54042;BME280;41156;51.508;5.406;2023-04-27T13:25:08;101776.41;;;18.64;33.27
54042;BME280;41156;51.508;5.406;2023-04-27T13:28:09;101772.16;;;18.73;32.57
54042;BME280;41156;51.508;5.406;2023-04-27T13:31:10;101769.84;;;18.65;34.09
54042;BME280;41156;51.508;5.406;2023-04-27T13:34:10;101756.56;;;18.57;34.18
54042;BME280;41156;51.508;5.406;2023-04-27T13:37:11;101750.59;;;18.60;31.86
54042;BME280;41156;51.508;5.406;2023-04-27T13:40:11;101750.59;;;18.60;34.25
54042;BME280;41156;51.508;5.406;2023-04-27T13:43:11;101748.91;;;18.42;32.00
54042;BME280;41156;51.508;5.406;2023-04-27T13:46:12;101751.94;;;18.57;34.08
54042;BME280;41156;51.508;5.406;2023-04-27T13:49:12;101748.66;;;18.43;33.92
54042;BME280;41156;51.508;5.406;2023-04-27T13:52:13;101744.75;;;18.39;33.91
54042;BME280;41156;51.508;5.406;2023-04-27T13:55:13;101742.19;;;18.49;33.34
54042;BME280;41156;51.508;5.406;2023-04-27T13:58:13;101741.81;;;18.58;33.98
54042;BME280;41156;51.508;5.406;2023-04-27T14:01:14;101728.81;;;18.36;34.52
54042;BME280;41156;51.508;5.406;2023-04-27T14:04:14;101719.06;;;18.40;34.36
54042;BME280;41156;51.508;5.406;2023-04-27T14:07:15;101721.25;;;18.55;34.77
54042;BME280;41156;51.508;5.406;2023-04-27T14:10:15;101727.78;;;18.71;34.38
54042;BME280;41156;51.508;5.406;2023-04-27T14:13:17;101720.75;;;18.75;34.24
54042;BME280;41156;51.508;5.406;2023-04-27T14:16:17;101709.84;;;18.63;33.99
54042;BME280;41156;51.508;5.406;2023-04-27T14:19:17;101700.41;;;18.54;33.79
54042;BME280;41156;51.508;5.406;2023-04-27T14:22:19;101693.97;;;18.31;34.02
54042;BME280;41156;51.508;5.406;2023-04-27T14:25:19;101695.75;;;18.55;33.86
54042;BME280;41156;51.508;5.406;2023-04-27T14:28:19;101695.59;;;18.61;32.97
54042;BME280;41156;51.508;5.406;2023-04-27T14:31:20;101696.78;;;18.48;31.60
54042;BME280;41156;51.508;5.406;2023-04-27T14:34:20;101691.84;;;18.34;32.73
54042;BME280;41156;51.508;5.406;2023-04-27T14:37:21;101693.00;;;18.21;33.71
54042;BME280;41156;51.508;5.406;2023-04-27T14:40:21;101678.06;;;18.28;31.86
54042;BME280;41156;51.508;5.406;2023-04-27T14:43:21;101682.97;;;18.26;32.19
54042;BME280;41156;51.508;5.406;2023-04-27T14:46:22;101660.06;;;18.16;31.03
54042;BME280;41156;51.508;5.406;2023-04-27T14:49:22;101657.72;;;18.07;31.99
54042;BME280;41156;51.508;5.406;2023-04-27T14:52:23;101655.19;;;17.89;33.12
54042;BME280;41156;51.508;5.406;2023-04-27T14:55:23;101652.22;;;17.90;31.42
54042;BME280;41156;51.508;5.406;2023-04-27T14:58:23;101659.81;;;17.88;33.19
54042;BME280;41156;51.508;5.406;2023-04-27T15:01:24;101656.91;;;17.66;33.57
54042;BME280;41156;51.508;5.406;2023-04-27T15:04:25;101671.28;;;17.62;32.54
54042;BME280;41156;51.508;5.406;2023-04-27T15:07:25;101674.63;;;17.52;33.62
54042;BME280;41156;51.508;5.406;2023-04-27T15:10:26;101676.66;;;17.56;31.99
54042;BME280;41156;51.508;5.406;2023-04-27T15:13:26;101671.47;;;17.31;33.93
54042;BME280;41156;51.508;5.406;2023-04-27T15:16:26;101673.88;;;17.16;33.90
54042;BME280;41156;51.508;5.406;2023-04-27T15:19:27;101674.59;;;17.11;34.53
54042;BME280;41156;51.508;5.406;2023-04-27T15:22:27;101666.63;;;17.10;34.53
54042;BME280;41156;51.508;5.406;2023-04-27T15:25:27;101676.72;;;17.09;34.96
54042;BME280;41156;51.508;5.406;2023-04-27T15:28:27;101661.13;;;16.62;35.01
54042;BME280;41156;51.508;5.406;2023-04-27T15:31:28;101666.22;;;16.47;35.70
54042;BME280;41156;51.508;5.406;2023-04-27T15:34:28;101658.53;;;16.56;35.23
54042;BME280;41156;51.508;5.406;2023-04-27T15:37:32;101661.59;;;16.48;35.81
54042;BME280;41156;51.508;5.406;2023-04-27T15:40:33;101656.00;;;16.42;35.86
54042;BME280;41156;51.508;5.406;2023-04-27T15:43:33;101658.72;;;16.31;35.86
54042;BME280;41156;51.508;5.406;2023-04-27T15:46:33;101650.31;;;16.32;36.46
54042;BME280;41156;51.508;5.406;2023-04-27T15:49:34;101642.06;;;16.20;35.95
54042;BME280;41156;51.508;5.406;2023-04-27T15:52:34;101635.56;;;16.21;36.81
54042;BME280;41156;51.508;5.406;2023-04-27T15:55:34;101638.47;;;16.08;35.96
54042;BME280;41156;51.508;5.406;2023-04-27T15:58:35;101637.41;;;15.97;36.17
54042;BME280;41156;51.508;5.406;2023-04-27T16:01:35;101637.00;;;15.94;37.35